Terminal Aerodrome Forecast
Issued by NWS

Home | Current Version | Previous Version | Text Only | Print | Product List | Glossary On
Versions: 1 2 3 4 5 6 7 8 9 10 11 12 13 14 15 16 17 18 19
000
FTUS43 KDVN 172320
TAFBRL
TAF
KBRL 172320Z 1800/1824 19007KT P6SM SKC
     FM180500 19007KT P6SM SKC WS020/22030KT
     FM181600 20013G18KT P6SM SKC=

USA.gov is the U.S. government's official web portal to all federal, state and local government web resources and services.